Time;durP1;ratioP1;P1;durP2;ratioP2;P2;SDS_P1;SDS_P2;PMS_P1;PMS_P2;Temp;Humidity;BMP_temperature;BMP_pressure;BME280_temperature;BME280_humidity;BME280_pressure;Samples;Min_cycle;Max_cycle;Signal;HPM_P1;HPM_P2
2021/01/17 00:00:47;;;;;;;;;;;;;;;-5.38;73.28;96695.47;1785620;79;27496;-79
2021/01/17 00:03:14;;;;;;;;;;;;;;;-5.39;73.20;96693.80;1785640;80;25471;-80
2021/01/17 00:05:42;;;;;;;;;;;;;;;-5.34;73.19;96696.88;1785631;79;26290;-80
2021/01/17 00:08:13;;;;;;;;;;;;;;;-5.32;73.10;96694.48;1785744;80;25704;-77
2021/01/17 00:10:40;;;;;;;;;;;;;;;-5.32;73.05;96691.02;1785677;80;25681;-78
2021/01/17 00:13:08;;;;;;;;;;;;;;;-5.31;73.05;96686.91;1785691;80;27562;-79
2021/01/17 00:15:36;;;;;;;;;;;;;;;-5.27;73.07;96687.49;1785625;80;26260;-77
2021/01/17 00:18:04;;;;;;;;;;;;;;;-5.29;72.96;96689.41;1786803;79;25667;-80
2021/01/17 00:20:31;;;;;;;;;;;;;;;-5.25;73.06;96692.14;1788161;80;25850;-80
2021/01/17 00:23:04;;;;;;;;;;;;;;;-5.24;73.06;96692.02;1785706;80;25920;-79
2021/01/17 00:25:31;;;;;;;;;;;;;;;-5.22;73.02;96686.14;1785667;80;27496;-80
2021/01/17 00:27:59;;;;;;;;;;;;;;;-5.25;72.93;96686.88;1785625;80;26207;-80
2021/01/17 00:30:29;;;;;;;;;;;;;;;-5.20;72.93;96683.39;1785669;80;25820;-81
2021/01/17 00:33:00;;;;;;;;;;;;;;;-5.16;72.83;96683.45;1785311;80;43436;-78
2021/01/17 00:35:29;;;;;;;;;;;;;;;-5.11;72.84;96681.27;1785691;80;25845;-81
2021/01/17 00:37:58;;;;;;;;;;;;;;;-5.04;72.77;96671.86;1789258;79;27604;-80
2021/01/17 00:40:27;;;;;;;;;;;;;;;-5.02;72.59;96681.78;1769183;80;25762;-79
2021/01/17 00:42:55;;;;;;;;;;;;;;;-5.05;72.54;96674.14;1764384;80;26327;-80
2021/01/17 00:45:27;;;;;;;;;;;;;;;-5.03;72.49;96677.97;1758843;80;25657;-80
2021/01/17 00:47:55;;;;;;;;;;;;;;;-5.02;72.52;96667.31;1782218;80;25795;-79
2021/01/17 00:50:23;;;;;;;;;;;;;;;-5.02;72.46;96673.89;1782100;79;27499;-81
2021/01/17 00:52:54;;;;;;;;;;;;;;;-5.03;72.45;96668.27;1781960;80;25799;-79
2021/01/17 00:55:22;;;;;;;;;;;;;;;-5.10;72.30;96667.16;1782108;80;25338;-78
2021/01/17 00:57:49;;;;;;;;;;;;;;;-5.06;72.45;96669.84;1782003;80;25773;-80
2021/01/17 01:00:19;;;;;;;;;;;;;;;-5.03;72.42;96670.91;1782225;80;25886;-77
2021/01/17 01:02:45;;;;;;;;;;;;;;;-5.10;72.38;96667.98;1782184;80;27558;-80
2021/01/17 01:05:13;;;;;;;;;;;;;;;-5.14;72.46;96664.42;1782035;80;26325;-79
2021/01/17 01:07:42;;;;;;;;;;;;;;;-5.22;72.51;96670.36;1782034;80;25858;-78
2021/01/17 01:10:11;;;;;;;;;;;;;;;-5.22;72.68;96662.95;1782155;80;25801;-80
2021/01/17 01:12:38;;;;;;;;;;;;;;;-5.20;72.77;96662.34;1788173;79;25712;-78
2021/01/17 01:15:06;;;;;;;;;;;;;;;-5.21;72.82;96664.61;1772664;79;27709;-78
2021/01/17 01:17:33;;;;;;;;;;;;;;;-5.26;72.83;96658.91;1774778;80;25728;-82
2021/01/17 01:20:00;;;;;;;;;;;;;;;-5.30;72.92;96660.13;1769723;79;25347;-81
2021/01/17 01:22:27;;;;;;;;;;;;;;;-5.31;73.00;96663.75;1764418;80;26425;-80
2021/01/17 01:24:54;;;;;;;;;;;;;;;-5.34;73.05;96658.74;1763074;80;25842;-82
2021/01/17 01:27:21;;;;;;;;;;;;;;;-5.31;73.20;96659.80;1756574;80;28780;-82
2021/01/17 01:29:48;;;;;;;;;;;;;;;-5.31;73.27;96657.17;1745617;80;25816;-82
2021/01/17 01:32:15;;;;;;;;;;;;;;;-5.35;73.27;96654.44;1764317;80;25715;-81
2021/01/17 01:34:42;;;;;;;;;;;;;;;-5.36;73.41;96661.50;1775731;80;25859;-80
2021/01/17 01:37:09;;;;;;;;;;;;;;;-5.36;73.44;96658.87;1765442;80;26319;-81
2021/01/17 01:39:38;;;;;;;;;;;;;;;-5.37;73.49;96659.83;1764497;80;26715;-81
2021/01/17 01:42:06;;;;;;;;;;;;;;;-5.33;73.50;96655.15;1748865;80;25692;-81
2021/01/17 01:44:33;;;;;;;;;;;;;;;-5.30;73.57;96656.17;1760825;79;25833;-82
2021/01/17 01:47:01;;;;;;;;;;;;;;;-5.27;73.56;96651.97;1781748;79;26238;-81
2021/01/17 01:49:28;;;;;;;;;;;;;;;-5.33;73.52;96649.41;1754133;80;25732;-83
2021/01/17 01:51:58;;;;;;;;;;;;;;;-5.31;73.58;96650.59;1782222;80;27525;-81
2021/01/17 01:54:25;;;;;;;;;;;;;;;-5.26;73.70;96645.75;1781978;80;26119;-82
2021/01/17 01:56:53;;;;;;;;;;;;;;;-5.23;73.67;96644.18;1782166;79;25768;-81
2021/01/17 01:59:20;;;;;;;;;;;;;;;-5.27;73.62;96640.13;1782168;80;26577;-80
2021/01/17 02:01:49;;;;;;;;;;;;;;;-5.28;73.65;96638.47;1782319;80;25371;-81
2021/01/17 02:04:16;;;;;;;;;;;;;;;-5.31;73.70;96642.19;1782259;80;27502;-81
2021/01/17 02:06:59;;;;;;;;;;;;;;;-5.29;73.78;96634.17;1782176;80;26309;-80
2021/01/17 02:09:27;;;;;;;;;;;;;;;-5.25;73.87;96639.53;1775177;80;26369;-81
2021/01/17 02:12:28;;;;;;;;;;;;;;;-5.33;73.81;96632.30;1782338;80;26483;-81
2021/01/17 02:14:57;;;;;;;;;;;;;;;-5.37;73.87;96640.58;1782257;80;26392;-82
2021/01/17 02:17:27;;;;;;;;;;;;;;;-5.40;73.90;96635.58;1782290;80;28434;-82
2021/01/17 02:20:23;;;;;;;;;;;;;;;-5.43;74.02;96638.49;1782106;80;25738;-82
2021/01/17 02:23:08;;;;;;;;;;;;;;;-5.48;74.01;96638.40;1783221;79;26155;-83
2021/01/17 02:25:37;;;;;;;;;;;;;;;-5.53;74.08;96635.31;1789021;79;25750;-82
2021/01/17 02:28:06;;;;;;;;;;;;;;;-5.45;74.17;96640.77;1754072;80;25778;-82
2021/01/17 02:30:45;;;;;;;;;;;;;;;-5.43;74.18;96637.18;1766332;79;27500;-80
2021/01/17 02:33:22;;;;;;;;;;;;;;;-5.35;74.23;96645.23;1779340;80;25726;-82
2021/01/17 02:36:09;;;;;;;;;;;;;;;-5.35;74.21;96646.55;1782220;80;25755;-82
2021/01/17 02:38:42;;;;;;;;;;;;;;;-5.40;74.15;96657.94;1779755;80;25711;-82
2021/01/17 02:41:38;;;;;;;;;;;;;;;-5.33;74.31;96670.45;1777326;80;25754;-82
2021/01/17 02:44:06;;;;;;;;;;;;;;;-5.28;74.25;96684.02;1776317;80;27493;-82
2021/01/17 02:46:34;;;;;;;;;;;;;;;-5.38;74.25;96679.20;1750942;80;26199;-81
2021/01/17 02:49:01;;;;;;;;;;;;;;;-5.35;74.36;96689.47;1782219;80;25858;-81
2021/01/17 02:51:28;;;;;;;;;;;;;;;-5.33;74.37;96682.77;1751053;80;25812;-82
2021/01/17 02:54:01;;;;;;;;;;;;;;;-5.35;74.08;96687.32;1782255;80;25818;-82
2021/01/17 02:56:31;;;;;;;;;;;;;;;-5.37;73.93;96689.25;1777693;80;27501;-81
2021/01/17 02:58:59;;;;;;;;;;;;;;;-5.39;73.92;96694.63;1732199;81;25814;-79
2021/01/17 03:01:33;;;;;;;;;;;;;;;-5.41;73.79;96686.03;1766284;80;25824;-82
2021/01/17 03:04:16;;;;;;;;;;;;;;;-5.44;73.81;96691.58;1781961;79;25814;-81
2021/01/17 03:06:44;;;;;;;;;;;;;;;-5.50;73.84;96695.55;1744082;80;25884;-82
2021/01/17 03:09:11;;;;;;;;;;;;;;;-5.53;73.83;96691.02;1737937;80;27495;-81
2021/01/17 03:11:38;;;;;;;;;;;;;;;-5.55;73.87;96691.14;1770922;80;26220;-82
2021/01/17 03:14:07;;;;;;;;;;;;;;;-5.56;73.79;96691.30;1754234;80;25302;-83
2021/01/17 03:16:35;;;;;;;;;;;;;;;-5.62;73.78;96692.64;1768998;80;25684;-78
2021/01/17 03:19:02;;;;;;;;;;;;;;;-5.83;73.54;96697.07;1768197;80;25724;-77
2021/01/17 03:21:29;;;;;;;;;;;;;;;-5.87;73.80;96696.96;1765773;80;28542;-81
2021/01/17 03:23:55;;;;;;;;;;;;;;;-5.90;73.91;96694.13;1777804;80;26002;-83
2021/01/17 03:26:22;;;;;;;;;;;;;;;-6.04;73.73;96701.52;1758664;80;25713;-81
2021/01/17 03:28:49;;;;;;;;;;;;;;;-6.02;73.95;96699.57;1765437;80;25675;-82
2021/01/17 03:31:16;;;;;;;;;;;;;;;-6.08;73.95;96700.92;1782178;80;25867;-81
2021/01/17 03:33:43;;;;;;;;;;;;;;;-6.06;74.04;96705.58;1751002;80;28650;-82
2021/01/17 03:36:11;;;;;;;;;;;;;;;-6.09;73.89;96712.88;1782018;80;25719;-81
2021/01/17 03:38:38;;;;;;;;;;;;;;;-6.16;73.97;96714.34;1781990;80;25771;-80
2021/01/17 03:41:04;;;;;;;;;;;;;;;-6.20;74.00;96713.27;1782098;80;26463;-81
2021/01/17 03:43:31;;;;;;;;;;;;;;;-6.32;74.02;96711.64;1782230;80;25807;-78
2021/01/17 03:45:58;;;;;;;;;;;;;;;-6.27;74.29;96712.56;1760374;80;28523;-82
2021/01/17 03:48:25;;;;;;;;;;;;;;;-6.20;74.33;96714.59;1761394;80;25810;-80
2021/01/17 03:50:52;;;;;;;;;;;;;;;-6.12;74.29;96717.89;1772273;80;25666;-79
2021/01/17 03:53:19;;;;;;;;;;;;;;;-6.12;74.18;96726.25;1778148;79;25768;-81
2021/01/17 03:55:46;;;;;;;;;;;;;;;-6.13;74.23;96724.10;1778917;80;25991;-80
2021/01/17 03:58:13;;;;;;;;;;;;;;;-6.15;74.18;96725.18;1782128;80;27424;-82
2021/01/17 04:00:40;;;;;;;;;;;;;;;-6.10;74.30;96731.74;1771230;80;26086;-80
2021/01/17 04:03:07;;;;;;;;;;;;;;;-6.06;74.35;96730.54;1780642;80;25839;-81
2021/01/17 04:05:34;;;;;;;;;;;;;;;-6.02;74.30;96735.05;1782116;80;25794;-81
2021/01/17 04:08:01;;;;;;;;;;;;;;;-6.14;74.15;96736.05;1782019;80;25870;-78
2021/01/17 04:10:28;;;;;;;;;;;;;;;-6.28;74.13;96731.42;1782173;80;29184;-81
2021/01/17 04:12:55;;;;;;;;;;;;;;;-6.36;74.28;96733.02;1781527;80;25828;-81
2021/01/17 04:15:22;;;;;;;;;;;;;;;-6.32;74.44;96735.77;1759629;80;25546;-81
2021/01/17 04:17:49;;;;;;;;;;;;;;;-6.31;74.48;96734.80;1767496;80;25644;-81
2021/01/17 04:20:16;;;;;;;;;;;;;;;-6.28;74.48;96735.88;1769558;80;25739;-80
2021/01/17 04:22:43;;;;;;;;;;;;;;;-6.25;74.45;96739.06;1776216;80;27703;-82
2021/01/17 04:25:11;;;;;;;;;;;;;;;-6.33;74.39;96737.55;1780936;79;26360;-81
2021/01/17 04:27:38;;;;;;;;;;;;;;;-6.33;74.42;96749.38;1782174;80;25707;-81
2021/01/17 04:30:06;;;;;;;;;;;;;;;-6.32;74.40;96748.42;1777213;80;25755;-78
2021/01/17 04:32:34;;;;;;;;;;;;;;;-6.37;74.28;96753.19;1756881;80;25722;-80
2021/01/17 04:35:01;;;;;;;;;;;;;;;-6.48;74.17;96749.28;1781361;80;27498;-82
2021/01/17 04:37:28;;;;;;;;;;;;;;;-6.52;74.20;96754.44;1761854;80;25923;-81
2021/01/17 04:39:55;;;;;;;;;;;;;;;-6.49;74.23;96753.34;1781961;80;25726;-81
2021/01/17 04:42:24;;;;;;;;;;;;;;;-6.42;74.24;96756.69;1782036;80;25849;-78
2021/01/17 04:44:53;;;;;;;;;;;;;;;-6.45;74.19;96756.92;1782166;80;26004;-81
2021/01/17 04:47:21;;;;;;;;;;;;;;;-6.44;74.12;96769.09;1748421;80;27554;-78
2021/01/17 04:49:51;;;;;;;;;;;;;;;-6.38;74.07;96762.02;1752518;80;25777;-78
2021/01/17 04:52:21;;;;;;;;;;;;;;;-6.36;73.81;96765.37;1770226;80;25843;-81
2021/01/17 04:54:48;;;;;;;;;;;;;;;-6.36;73.57;96767.99;1781985;80;25866;-80
2021/01/17 04:57:34;;;;;;;;;;;;;;;-6.40;73.47;96767.88;1782106;80;25767;-81
2021/01/17 05:00:07;;;;;;;;;;;;;;;-6.40;73.55;96774.44;1755072;80;27513;-80
2021/01/17 05:02:47;;;;;;;;;;;;;;;-6.39;73.74;96773.48;1763870;80;26302;-78
2021/01/17 05:05:18;;;;;;;;;;;;;;;-6.43;73.77;96777.33;1762967;80;25948;-82
2021/01/17 05:07:50;;;;;;;;;;;;;;;-6.51;73.88;96771.83;1781895;80;25770;-81
2021/01/17 05:10:30;;;;;;;;;;;;;;;-6.56;73.89;96777.95;1773797;80;25891;-80
2021/01/17 05:13:00;;;;;;;;;;;;;;;-6.64;74.03;96779.05;1773244;80;28910;-80
2021/01/17 05:15:28;;;;;;;;;;;;;;;-6.60;74.12;96779.97;1782214;80;25712;-81
2021/01/17 05:17:56;;;;;;;;;;;;;;;-6.57;74.12;96781.52;1781835;80;25930;-79
2021/01/17 05:20:23;;;;;;;;;;;;;;;-6.57;73.78;96786.30;1752106;79;25761;-82
2021/01/17 05:22:51;;;;;;;;;;;;;;;-6.60;73.43;96784.38;1782214;80;25860;-81
2021/01/17 05:25:19;;;;;;;;;;;;;;;-6.62;73.14;96790.23;1771565;79;27297;-80
2021/01/17 05:27:48;;;;;;;;;;;;;;;-6.58;73.13;96797.75;1762337;80;25716;-80
2021/01/17 05:30:17;;;;;;;;;;;;;;;-6.58;73.01;96796.92;1749591;79;25811;-77
2021/01/17 05:32:44;;;;;;;;;;;;;;;-6.54;72.94;96800.98;1774880;80;25526;-78
2021/01/17 05:35:11;;;;;;;;;;;;;;;-6.56;72.68;96798.95;1738234;80;25750;-78
2021/01/17 05:37:53;;;;;;;;;;;;;;;-6.58;72.53;96800.86;1777651;79;27554;-82
2021/01/17 05:40:21;;;;;;;;;;;;;;;-6.60;72.45;96810.16;1770514;80;26206;-82
2021/01/17 05:42:49;;;;;;;;;;;;;;;-6.59;72.45;96814.94;1764197;80;25673;-82
2021/01/17 05:45:19;;;;;;;;;;;;;;;-6.61;72.30;96818.98;1774558;80;26536;-81
2021/01/17 05:48:00;;;;;;;;;;;;;;;-6.71;71.90;96829.02;1781726;80;25750;-82
2021/01/17 05:50:29;;;;;;;;;;;;;;;-6.77;71.78;96829.03;1781909;80;28716;-81
2021/01/17 05:53:04;;;;;;;;;;;;;;;-6.85;71.72;96838.43;1782130;80;25898;-82
2021/01/17 05:55:44;;;;;;;;;;;;;;;-6.92;71.77;96836.30;1782420;79;26313;-82
2021/01/17 05:58:30;;;;;;;;;;;;;;;-7.03;71.62;96842.00;1729242;81;26931;-81
2021/01/17 06:01:03;;;;;;;;;;;;;;;-7.08;71.65;96841.03;1758395;80;25994;-81
2021/01/17 06:03:32;;;;;;;;;;;;;;;-7.14;71.56;96846.77;1735225;80;28874;-82
2021/01/17 06:06:06;;;;;;;;;;;;;;;-7.14;71.70;96853.80;1775381;80;26155;-81
2021/01/17 06:08:34;;;;;;;;;;;;;;;-7.11;71.61;96856.16;1772228;78;25896;-81
2021/01/17 06:11:10;;;;;;;;;;;;;;;-7.13;71.51;96857.61;1773029;80;27210;-81
2021/01/17 06:13:40;;;;;;;;;;;;;;;-7.18;71.41;96858.42;1772369;80;25801;-81
2021/01/17 06:16:34;;;;;;;;;;;;;;;-7.21;71.36;96861.27;1751820;80;27497;-82
2021/01/17 06:19:04;;;;;;;;;;;;;;;-7.25;71.37;96867.72;1758733;80;26209;-82
2021/01/17 06:21:31;;;;;;;;;;;;;;;-7.32;71.22;96865.17;1779431;79;25767;-81
2021/01/17 06:24:00;;;;;;;;;;;;;;;-7.36;71.19;96871.59;1737857;80;25865;-82
2021/01/17 06:26:32;;;;;;;;;;;;;;;-7.34;71.36;96872.31;1737830;80;25346;-81
2021/01/17 06:29:01;;;;;;;;;;;;;;;-7.27;71.29;96874.86;1756337;80;27503;-81
2021/01/17 06:31:30;;;;;;;;;;;;;;;-7.20;71.40;96879.98;1790633;80;25725;-81
2021/01/17 06:34:06;;;;;;;;;;;;;;;-7.19;71.28;96880.35;1774033;80;25742;-81
2021/01/17 06:36:36;;;;;;;;;;;;;;;-7.37;70.86;96881.27;1737782;80;25591;-81
2021/01/17 06:39:05;;;;;;;;;;;;;;;-7.66;70.62;96888.65;1778645;80;25719;-80
2021/01/17 06:41:37;;;;;;;;;;;;;;;-7.76;70.86;96898.13;1744691;81;28455;-78
2021/01/17 06:44:12;;;;;;;;;;;;;;;-7.81;71.02;96900.70;1761645;81;25876;-81
2021/01/17 06:46:43;;;;;;;;;;;;;;;-7.90;71.06;96902.22;1761710;80;25339;-81
2021/01/17 06:49:20;;;;;;;;;;;;;;;-7.98;70.95;96909.80;1761757;81;26497;-79
2021/01/17 06:51:49;;;;;;;;;;;;;;;-8.06;71.04;96921.28;1761907;80;26224;-80
2021/01/17 06:54:18;;;;;;;;;;;;;;;-8.12;71.15;96918.64;1761712;80;27552;-79
2021/01/17 06:56:46;;;;;;;;;;;;;;;-8.09;71.08;96921.02;1761391;80;25768;-79
2021/01/17 06:59:13;;;;;;;;;;;;;;;-8.15;70.89;96933.25;1761665;80;25781;-80
2021/01/17 07:01:43;;;;;;;;;;;;;;;-8.11;70.98;96935.19;1761599;81;26468;-78
2021/01/17 07:04:14;;;;;;;;;;;;;;;-8.12;70.82;96938.75;1761685;80;25724;-81
2021/01/17 07:07:05;;;;;;;;;;;;;;;-8.29;70.67;96941.70;1741328;81;28706;-80
2021/01/17 07:09:39;;;;;;;;;;;;;;;-8.27;70.75;96938.51;1761137;80;25774;-80
2021/01/17 07:12:15;;;;;;;;;;;;;;;-8.28;70.83;96946.84;1761301;80;25762;-79
2021/01/17 07:14:43;;;;;;;;;;;;;;;-8.21;70.87;96951.19;1758704;80;25845;-79
2021/01/17 07:17:10;;;;;;;;;;;;;;;-8.31;70.68;96956.70;1761495;81;26112;-79
2021/01/17 07:19:39;;;;;;;;;;;;;;;-8.41;70.63;96956.05;1761466;81;27577;-79
2021/01/17 07:22:07;;;;;;;;;;;;;;;-8.46;70.65;96958.16;1761400;81;25762;-79
2021/01/17 07:24:34;;;;;;;;;;;;;;;-8.44;70.59;96961.95;1761656;80;25770;-79
2021/01/17 07:27:09;;;;;;;;;;;;;;;-8.45;70.72;96968.97;1761633;80;25828;-79
2021/01/17 07:29:37;;;;;;;;;;;;;;;-8.32;70.90;96972.05;1735900;81;25874;-78
2021/01/17 07:32:08;;;;;;;;;;;;;;;-8.19;70.91;96976.77;1761669;81;27604;-79
2021/01/17 07:34:36;;;;;;;;;;;;;;;-8.11;70.86;96979.71;1760397;81;25657;-79
2021/01/17 07:37:05;;;;;;;;;;;;;;;-8.04;70.75;96990.11;1761603;81;25692;-79
2021/01/17 07:39:33;;;;;;;;;;;;;;;-8.05;70.57;96992.36;1774648;80;26453;-79
2021/01/17 07:42:02;;;;;;;;;;;;;;;-8.04;70.59;96986.18;1766956;80;25875;-80
2021/01/17 07:44:31;;;;;;;;;;;;;;;-8.10;70.46;96985.31;1768766;79;28511;-79
2021/01/17 07:47:06;;;;;;;;;;;;;;;-8.07;70.59;96989.01;1773813;80;25831;-79
2021/01/17 07:49:34;;;;;;;;;;;;;;;-8.01;70.59;96991.21;1762010;80;26248;-79
2021/01/17 07:52:03;;;;;;;;;;;;;;;-7.98;70.40;96997.55;1785628;80;26348;-79
2021/01/17 07:54:32;;;;;;;;;;;;;;;-8.20;70.19;96990.33;1788841;79;25716;-79
2021/01/17 07:57:03;;;;;;;;;;;;;;;-8.16;70.39;96997.52;1787858;79;27486;-79
2021/01/17 07:59:30;;;;;;;;;;;;;;;-8.21;70.36;97001.75;1784378;80;26329;-79
2021/01/17 08:01:57;;;;;;;;;;;;;;;-8.30;70.29;97002.86;1790736;80;25811;-80
2021/01/17 08:04:25;;;;;;;;;;;;;;;-8.28;70.50;96997.89;1787693;80;25902;-80
2021/01/17 08:06:55;;;;;;;;;;;;;;;-8.19;70.58;97005.57;1787583;80;25924;-79
2021/01/17 08:09:43;;;;;;;;;;;;;;;-8.25;70.35;97007.32;1788763;80;28517;-80
2021/01/17 08:12:10;;;;;;;;;;;;;;;-8.29;70.43;97008.46;1787551;80;25725;-79
2021/01/17 08:14:40;;;;;;;;;;;;;;;-8.23;70.52;97011.98;1787496;78;25817;-78
2021/01/17 08:17:11;;;;;;;;;;;;;;;-8.17;70.52;97019.41;1790399;78;25705;-79
2021/01/17 08:19:46;;;;;;;;;;;;;;;-8.01;70.64;97026.58;1762727;80;25734;-81
2021/01/17 08:22:23;;;;;;;;;;;;;;;-8.13;70.32;97023.50;1747065;80;27504;-77
2021/01/17 08:24:52;;;;;;;;;;;;;;;-8.17;70.37;97024.64;1740509;80;25655;-79
2021/01/17 08:27:34;;;;;;;;;;;;;;;-8.13;70.58;97028.73;1737416;80;25882;-79
2021/01/17 08:30:07;;;;;;;;;;;;;;;-8.03;70.76;97035.01;1753361;80;25766;-79
2021/01/17 08:32:40;;;;;;;;;;;;;;;-7.99;70.48;97035.17;1756819;80;25809;-79
2021/01/17 08:35:20;;;;;;;;;;;;;;;-8.02;70.29;97034.06;1752176;80;28551;-79
2021/01/17 08:37:54;;;;;;;;;;;;;;;-7.99;70.20;97035.17;1752581;80;25788;-79
2021/01/17 08:40:34;;;;;;;;;;;;;;;-7.97;69.98;97037.22;1755498;80;25766;-79
2021/01/17 08:43:02;;;;;;;;;;;;;;;-8.06;69.86;97031.28;1761340;80;25932;-78
2021/01/17 08:45:36;;;;;;;;;;;;;;;-7.96;69.96;97034.93;1762987;81;25749;-79
2021/01/17 08:48:09;;;;;;;;;;;;;;;-7.83;69.91;97037.53;1762126;81;28511;-79
2021/01/17 08:50:38;;;;;;;;;;;;;;;-7.77;69.60;97035.34;1758602;80;26268;-79
2021/01/17 08:53:19;;;;;;;;;;;;;;;-7.83;69.20;97039.69;1763775;80;25669;-79
2021/01/17 08:55:49;;;;;;;;;;;;;;;-7.94;69.18;97040.91;1764077;81;26111;-80
2021/01/17 08:58:30;;;;;;;;;;;;;;;-7.78;69.54;97050.70;1761108;81;25669;-79
2021/01/17 09:01:01;;;;;;;;;;;;;;;-7.72;69.25;97059.89;1751960;81;27491;-79
2021/01/17 09:03:37;;;;;;;;;;;;;;;-7.60;69.30;97063.43;1761609;80;25841;-79
2021/01/17 09:06:07;;;;;;;;;;;;;;;-7.51;69.13;97069.36;1761603;81;26317;-80
2021/01/17 09:08:34;;;;;;;;;;;;;;;-7.47;68.93;97076.05;1762842;81;25763;-80
2021/01/17 09:11:02;;;;;;;;;;;;;;;-7.42;68.88;97083.13;1763936;80;25772;-80
2021/01/17 09:13:31;;;;;;;;;;;;;;;-7.29;69.03;97089.17;1764014;80;28498;-79
2021/01/17 09:16:07;;;;;;;;;;;;;;;-7.02;69.06;97088.51;1764753;79;26184;-80
2021/01/17 09:18:36;;;;;;;;;;;;;;;-6.80;68.85;97091.71;1763336;81;25771;-80
2021/01/17 09:21:06;;;;;;;;;;;;;;;-6.72;68.63;97095.08;1765221;81;25703;-79
2021/01/17 09:23:38;;;;;;;;;;;;;;;-6.64;68.25;97098.80;1765314;80;25791;-79
2021/01/17 09:26:06;;;;;;;;;;;;;;;-6.61;68.04;97102.52;1762507;80;28462;-80
2021/01/17 09:28:34;;;;;;;;;;;;;;;-6.49;67.96;97107.34;1761623;80;25742;-80
2021/01/17 09:31:02;;;;;;;;;;;;;;;-6.35;67.78;97108.95;1761815;80;25755;-79
2021/01/17 09:33:31;;;;;;;;;;;;;;;-6.34;67.37;97110.15;1761600;81;25787;-80
2021/01/17 09:35:58;;;;;;;;;;;;;;;-6.30;67.19;97105.52;1761748;80;25700;-80
2021/01/17 09:38:26;;;;;;;;;;;;;;;-6.30;67.13;97093.22;1761657;81;27561;-80
2021/01/17 09:40:56;;;;;;;;;;;;;;;-6.23;67.06;97097.05;1757509;80;25943;-80
2021/01/17 09:43:24;;;;;;;;;;;;;;;-6.29;66.56;97102.77;1737420;80;25819;-80
2021/01/17 09:45:56;;;;;;;;;;;;;;;-6.16;67.13;97109.73;1739529;80;25762;-80
2021/01/17 09:48:25;;;;;;;;;;;;;;;-5.96;67.17;97109.05;1758392;80;25848;-79
2021/01/17 09:50:52;;;;;;;;;;;;;;;-5.81;66.99;97110.48;1745940;80;27483;-79
2021/01/17 09:53:20;;;;;;;;;;;;;;;-5.74;66.59;97105.10;1770244;80;25785;-81
2021/01/17 09:55:48;;;;;;;;;;;;;;;-5.83;66.37;97108.45;1775542;80;25681;-81
2021/01/17 09:58:15;;;;;;;;;;;;;;;-5.74;66.39;97103.78;1754242;78;25915;-81
2021/01/17 10:00:44;;;;;;;;;;;;;;;-5.64;66.37;97103.91;1753763;80;25752;-81
2021/01/17 10:03:16;;;;;;;;;;;;;;;-5.65;65.92;97100.44;1737851;80;27523;-80
2021/01/17 10:05:45;;;;;;;;;;;;;;;-5.65;65.99;97107.02;1778499;80;26125;-82
2021/01/17 10:08:15;;;;;;;;;;;;;;;-5.49;65.98;97111.92;1747664;80;25870;-81
2021/01/17 10:10:47;;;;;;;;;;;;;;;-5.42;65.79;97122.80;1777436;78;25729;-81
2021/01/17 10:13:14;;;;;;;;;;;;;;;-5.40;65.67;97120.41;1773606;78;25713;-81
2021/01/17 10:15:41;;;;;;;;;;;;;;;-5.32;65.15;97126.41;1748695;80;27504;-81
2021/01/17 10:18:09;;;;;;;;;;;;;;;-5.27;65.12;97128.17;1737335;80;26052;-81
2021/01/17 10:20:38;;;;;;;;;;;;;;;-5.17;64.90;97133.07;1752447;80;26646;-80
2021/01/17 10:23:12;;;;;;;;;;;;;;;-5.17;64.67;97129.13;1744391;80;25887;-81
2021/01/17 10:25:39;;;;;;;;;;;;;;;-5.17;64.58;97138.33;1744392;80;25749;-82
2021/01/17 10:28:08;;;;;;;;;;;;;;;-5.21;64.42;97139.55;1743632;80;27486;-82
2021/01/17 10:30:38;;;;;;;;;;;;;;;-5.14;64.47;97138.09;1778494;80;26093;-81
2021/01/17 10:33:10;;;;;;;;;;;;;;;-5.07;64.37;97137.16;1740161;79;25757;-81
2021/01/17 10:35:40;;;;;;;;;;;;;;;-5.14;64.22;97136.78;1750116;80;25898;-80
2021/01/17 10:38:09;;;;;;;;;;;;;;;-5.19;64.47;97136.33;1761792;80;26355;-81
2021/01/17 10:40:38;;;;;;;;;;;;;;;-5.14;64.60;97139.41;1787973;80;28308;-81
2021/01/17 10:43:10;;;;;;;;;;;;;;;-5.08;64.61;97142.89;1736996;80;25938;-80
2021/01/17 10:45:39;;;;;;;;;;;;;;;-5.01;64.33;97144.06;1738324;80;26359;-80
2021/01/17 10:48:10;;;;;;;;;;;;;;;-4.92;64.44;97138.06;1772982;80;26393;-81
2021/01/17 10:50:40;;;;;;;;;;;;;;;-4.65;64.41;97140.28;1737132;80;25359;-81
2021/01/17 10:53:11;;;;;;;;;;;;;;;-4.55;63.46;97143.00;1731963;80;27709;-81
2021/01/17 10:55:40;;;;;;;;;;;;;;;-4.76;63.48;97147.73;1745443;80;25732;-81
2021/01/17 10:58:08;;;;;;;;;;;;;;;-4.80;63.30;97141.03;1752441;80;25739;-81
2021/01/17 11:00:35;;;;;;;;;;;;;;;-4.92;63.44;97135.91;1748987;80;25808;-81
2021/01/17 11:03:08;;;;;;;;;;;;;;;-4.78;63.76;97131.70;1754848;80;26078;-81
2021/01/17 11:05:36;;;;;;;;;;;;;;;-4.67;63.25;97136.93;1765606;79;28495;-82
2021/01/17 11:08:03;;;;;;;;;;;;;;;-4.53;63.52;97138.45;1760677;80;25804;-81
2021/01/17 11:10:30;;;;;;;;;;;;;;;-4.50;62.74;97148.75;1784273;80;25742;-81
2021/01/17 11:12:57;;;;;;;;;;;;;;;-4.51;63.35;97149.70;1772943;80;25851;-82
2021/01/17 11:15:28;;;;;;;;;;;;;;;-4.17;63.51;97151.25;1786439;79;25747;-81
2021/01/17 11:17:57;;;;;;;;;;;;;;;-3.91;63.20;97148.25;1775950;80;27566;-81
2021/01/17 11:20:30;;;;;;;;;;;;;;;-3.90;62.75;97145.97;1782612;80;26370;-81
2021/01/17 11:23:07;;;;;;;;;;;;;;;-3.73;62.85;97145.38;1767783;80;25708;-81
2021/01/17 11:25:35;;;;;;;;;;;;;;;-3.58;62.53;97141.92;1773703;79;25693;-81
2021/01/17 11:28:04;;;;;;;;;;;;;;;-3.41;62.53;97147.94;1773637;79;25854;-81
2021/01/17 11:30:32;;;;;;;;;;;;;;;-3.81;62.02;97150.47;1787651;79;27504;-81
2021/01/17 11:33:07;;;;;;;;;;;;;;;-3.79;62.30;97147.22;1768644;80;25727;-81
2021/01/17 11:35:35;;;;;;;;;;;;;;;-3.87;62.20;97151.00;1763353;80;25956;-81
2021/01/17 11:38:03;;;;;;;;;;;;;;;-4.46;61.77;97146.20;1775256;80;26456;-82
2021/01/17 11:40:30;;;;;;;;;;;;;;;-4.53;62.24;97151.63;1767775;80;25829;-81
2021/01/17 11:43:08;;;;;;;;;;;;;;;-4.43;62.41;97155.18;1769982;80;27501;-81
2021/01/17 11:45:45;;;;;;;;;;;;;;;-4.52;62.15;97151.98;1780085;79;26352;-81
2021/01/17 11:48:13;;;;;;;;;;;;;;;-4.64;61.95;97152.97;1737440;80;25733;-81
2021/01/17 11:50:45;;;;;;;;;;;;;;;-4.73;62.08;97146.18;1772016;80;25735;-81
2021/01/17 11:53:12;;;;;;;;;;;;;;;-4.76;62.39;97151.69;1774329;80;25777;-81
2021/01/17 11:55:40;;;;;;;;;;;;;;;-4.64;62.32;97154.30;1761323;80;28633;-80
2021/01/17 11:58:11;;;;;;;;;;;;;;;-4.60;62.19;97158.36;1766459;79;26184;-81
2021/01/17 12:00:53;;;;;;;;;;;;;;;-4.60;62.07;97157.05;1766801;80;25760;-81
2021/01/17 12:03:24;;;;;;;;;;;;;;;-4.69;62.02;97162.55;1736686;80;25911;-81
2021/01/17 12:06:00;;;;;;;;;;;;;;;-4.87;62.01;97159.61;1760484;80;25895;-81
2021/01/17 12:08:47;;;;;;;;;;;;;;;-4.94;62.16;97162.35;1761237;80;27521;-80
2021/01/17 12:11:34;;;;;;;;;;;;;;;-4.97;62.07;97156.52;1772138;79;25658;-80
2021/01/17 12:14:05;;;;;;;;;;;;;;;-4.98;61.96;97154.36;1773364;79;25734;-80
2021/01/17 12:16:40;;;;;;;;;;;;;;;-5.32;61.70;97156.66;1768366;80;25502;-80
2021/01/17 12:19:09;;;;;;;;;;;;;;;-5.69;61.55;97154.23;1761391;80;25713;-80
2021/01/17 12:21:36;;;;;;;;;;;;;;;-6.15;61.70;97158.20;1761550;80;28450;-81
2021/01/17 12:24:05;;;;;;;;;;;;;;;-6.38;62.12;97158.59;1740713;80;26084;-81
2021/01/17 12:26:33;;;;;;;;;;;;;;;-6.33;62.69;97164.36;1764816;80;25728;-80
2021/01/17 12:29:00;;;;;;;;;;;;;;;-6.12;62.86;97168.48;1763016;80;26656;-81
2021/01/17 12:31:27;;;;;;;;;;;;;;;-5.92;62.68;97160.44;1761435;80;25782;-81
2021/01/17 12:33:56;;;;;;;;;;;;;;;-5.81;62.23;97160.43;1761385;80;27692;-81
2021/01/17 12:36:25;;;;;;;;;;;;;;;-5.83;62.16;97163.17;1752358;81;25940;-81
2021/01/17 12:38:52;;;;;;;;;;;;;;;-5.75;62.41;97161.73;1733259;80;25798;-81
2021/01/17 12:41:22;;;;;;;;;;;;;;;-5.73;61.90;97162.47;1771698;80;25522;-80
2021/01/17 12:43:50;;;;;;;;;;;;;;;-5.73;62.26;97161.98;1781112;80;26000;-81
2021/01/17 12:46:18;;;;;;;;;;;;;;;-5.63;62.29;97172.16;1777175;79;28385;-81
2021/01/17 12:48:46;;;;;;;;;;;;;;;-5.66;62.10;97171.55;1786881;79;26459;-81
2021/01/17 12:51:13;;;;;;;;;;;;;;;-5.60;62.27;97174.56;1775789;79;25896;-81
2021/01/17 12:53:41;;;;;;;;;;;;;;;-5.54;62.12;97177.19;1778947;79;26459;-81
2021/01/17 12:56:09;;;;;;;;;;;;;;;-5.55;62.14;97178.97;1787954;79;25786;-80
2021/01/17 12:58:38;;;;;;;;;;;;;;;-5.46;62.14;97176.14;1781000;80;27550;-81
2021/01/17 13:01:05;;;;;;;;;;;;;;;-5.36;62.33;97180.20;1785168;79;25735;-80
2021/01/17 13:03:33;;;;;;;;;;;;;;;-5.31;62.21;97180.70;1777654;80;25779;-81